sensor_id;sensor_type;location;lat;lon;timestamp;pressure;altitude;pressure_sealevel;temperature;humidity
65329;BME280;51941;52.210;5.158;2023-07-29T00:00:44;100683.16;;;17.28;100.00
65329;BME280;51941;52.210;5.158;2023-07-29T00:03:10;100695.97;;;17.31;100.00
65329;BME280;51941;52.210;5.158;2023-07-29T00:05:39;100688.00;;;17.26;100.00
65329;BME280;51941;52.210;5.158;2023-07-29T00:08:06;100689.88;;;17.25;100.00
65329;BME280;51941;52.210;5.158;2023-07-29T00:10:36;100688.81;;;17.21;100.00
65329;BME280;51941;52.210;5.158;2023-07-29T00:13:03;100676.81;;;17.19;100.00
65329;BME280;51941;52.210;5.158;2023-07-29T00:15:30;100675.75;;;17.15;100.00
65329;BME280;51941;52.210;5.158;2023-07-29T00:17:57;100673.88;;;17.15;100.00
65329;BME280;51941;52.210;5.158;2023-07-29T00:20:23;100662.91;;;17.17;100.00
65329;BME280;51941;52.210;5.158;2023-07-29T00:22:51;100659.44;;;17.16;100.00
65329;BME280;51941;52.210;5.158;2023-07-29T00:25:20;100663.66;;;17.22;100.00
65329;BME280;51941;52.210;5.158;2023-07-29T00:27:47;100665.00;;;17.25;100.00
65329;BME280;51941;52.210;5.158;2023-07-29T00:30:13;100666.31;;;17.27;100.00
65329;BME280;51941;52.210;5.158;2023-07-29T00:32:41;100667.41;;;17.26;100.00
65329;BME280;51941;52.210;5.158;2023-07-29T00:35:08;100656.97;;;17.25;100.00
65329;BME280;51941;52.210;5.158;2023-07-29T00:37:36;100660.97;;;17.27;100.00
65329;BME280;51941;52.210;5.158;2023-07-29T00:40:12;100658.56;;;17.26;100.00
65329;BME280;51941;52.210;5.158;2023-07-29T00:42:39;100652.41;;;17.25;100.00
65329;BME280;51941;52.210;5.158;2023-07-29T00:45:08;100658.03;;;17.29;100.00
65329;BME280;51941;52.210;5.158;2023-07-29T00:47:35;100653.47;;;17.29;100.00
65329;BME280;51941;52.210;5.158;2023-07-29T00:50:03;100652.38;;;17.30;100.00
65329;BME280;51941;52.210;5.158;2023-07-29T00:52:30;100652.88;;;17.32;100.00
65329;BME280;51941;52.210;5.158;2023-07-29T00:54:57;100649.94;;;17.34;100.00
65329;BME280;51941;52.210;5.158;2023-07-29T00:57:26;100641.38;;;17.32;100.00
65329;BME280;51941;52.210;5.158;2023-07-29T00:59:54;100647.81;;;17.31;100.00
65329;BME280;51941;52.210;5.158;2023-07-29T01:02:21;100641.66;;;17.30;100.00
65329;BME280;51941;52.210;5.158;2023-07-29T01:04:51;100637.91;;;17.31;100.00
65329;BME280;51941;52.210;5.158;2023-07-29T01:07:22;100640.88;;;17.30;100.00
65329;BME280;51941;52.210;5.158;2023-07-29T01:10:00;100634.22;;;17.27;100.00
65329;BME280;51941;52.210;5.158;2023-07-29T01:12:36;100636.63;;;17.24;100.00
65329;BME280;51941;52.210;5.158;2023-07-29T01:15:12;100639.03;;;17.25;100.00
65329;BME280;51941;52.210;5.158;2023-07-29T01:17:43;100628.41;;;17.20;100.00
65329;BME280;51941;52.210;5.158;2023-07-29T01:20:14;100636.38;;;17.25;100.00
65329;BME280;51941;52.210;5.158;2023-07-29T01:22:42;100642.78;;;17.24;100.00
65329;BME280;51941;52.210;5.158;2023-07-29T01:25:10;100631.28;;;17.24;100.00
65329;BME280;51941;52.210;5.158;2023-07-29T01:27:38;100637.19;;;17.21;100.00
65329;BME280;51941;52.210;5.158;2023-07-29T01:30:06;100631.63;;;17.17;100.00
65329;BME280;51941;52.210;5.158;2023-07-29T01:32:37;100625.19;;;17.18;100.00
65329;BME280;51941;52.210;5.158;2023-07-29T01:35:13;100618.53;;;17.16;100.00
65329;BME280;51941;52.210;5.158;2023-07-29T01:37:44;100623.06;;;17.15;100.00
65329;BME280;51941;52.210;5.158;2023-07-29T01:40:16;100628.69;;;17.14;100.00
65329;BME280;51941;52.210;5.158;2023-07-29T01:42:44;100628.47;;;17.10;100.00
65329;BME280;51941;52.210;5.158;2023-07-29T01:45:12;100623.94;;;17.05;100.00
65329;BME280;51941;52.210;5.158;2023-07-29T01:47:38;100630.94;;;17.01;100.00
65329;BME280;51941;52.210;5.158;2023-07-29T01:50:07;100619.19;;;16.97;100.00
65329;BME280;51941;52.210;5.158;2023-07-29T01:52:36;100624.25;;;16.99;100.00
65329;BME280;51941;52.210;5.158;2023-07-29T01:55:03;100618.38;;;16.97;100.00
65329;BME280;51941;52.210;5.158;2023-07-29T01:57:31;100619.72;;;16.94;100.00
65329;BME280;51941;52.210;5.158;2023-07-29T01:59:58;100620.56;;;16.90;100.00
65329;BME280;51941;52.210;5.158;2023-07-29T02:02:25;100627.00;;;16.89;100.00
65329;BME280;51941;52.210;5.158;2023-07-29T02:04:52;100625.41;;;16.88;100.00
65329;BME280;51941;52.210;5.158;2023-07-29T02:07:18;100623.00;;;16.86;100.00
65329;BME280;51941;52.210;5.158;2023-07-29T02:09:45;100619.81;;;16.84;100.00
65329;BME280;51941;52.210;5.158;2023-07-29T02:12:12;100620.91;;;16.83;100.00
65329;BME280;51941;52.210;5.158;2023-07-29T02:14:40;100605.94;;;16.82;100.00
65329;BME280;51941;52.210;5.158;2023-07-29T02:17:07;100607.81;;;16.82;100.00
65329;BME280;51941;52.210;5.158;2023-07-29T02:19:34;100608.91;;;16.76;100.00
65329;BME280;51941;52.210;5.158;2023-07-29T02:22:01;100603.31;;;16.72;100.00
65329;BME280;51941;52.210;5.158;2023-07-29T02:24:28;100603.84;;;16.69;100.00
65329;BME280;51941;52.210;5.158;2023-07-29T02:26:55;100598.56;;;16.64;100.00
65329;BME280;51941;52.210;5.158;2023-07-29T02:29:22;100603.91;;;16.64;100.00
65329;BME280;51941;52.210;5.158;2023-07-29T02:31:51;100603.63;;;16.65;100.00
65329;BME280;51941;52.210;5.158;2023-07-29T02:34:18;100601.22;;;16.64;100.00
65329;BME280;51941;52.210;5.158;2023-07-29T02:36:45;100597.47;;;16.65;100.00
65329;BME280;51941;52.210;5.158;2023-07-29T02:39:12;100600.16;;;16.65;100.00
65329;BME280;51941;52.210;5.158;2023-07-29T02:41:39;100597.47;;;16.65;100.00
65329;BME280;51941;52.210;5.158;2023-07-29T02:44:06;100597.47;;;16.65;100.00
65329;BME280;51941;52.210;5.158;2023-07-29T02:46:32;100598.56;;;16.64;100.00
65329;BME280;51941;52.210;5.158;2023-07-29T02:49:01;100606.31;;;16.65;100.00
65329;BME280;51941;52.210;5.158;2023-07-29T02:51:28;100602.03;;;16.64;100.00
65329;BME280;51941;52.210;5.158;2023-07-29T02:53:55;100600.44;;;16.63;100.00
65329;BME280;51941;52.210;5.158;2023-07-29T02:56:22;100598.03;;;16.62;100.00
65329;BME280;51941;52.210;5.158;2023-07-29T02:58:49;100595.91;;;16.59;100.00
65329;BME280;51941;52.210;5.158;2023-07-29T03:01:16;100592.16;;;16.55;100.00
65329;BME280;51941;52.210;5.158;2023-07-29T03:03:44;100591.63;;;16.58;100.00
65329;BME280;51941;52.210;5.158;2023-07-29T03:06:15;100584.41;;;16.53;100.00
65329;BME280;51941;52.210;5.158;2023-07-29T03:08:42;100583.06;;;16.56;100.00
65329;BME280;51941;52.210;5.158;2023-07-29T03:11:11;100591.34;;;16.54;100.00
65329;BME280;51941;52.210;5.158;2023-07-29T03:13:39;100582.00;;;16.52;100.00
65329;BME280;51941;52.210;5.158;2023-07-29T03:16:06;100580.16;;;16.52;100.00
65329;BME280;51941;52.210;5.158;2023-07-29T03:18:33;100572.94;;;16.53;100.00
65329;BME280;51941;52.210;5.158;2023-07-29T03:21:01;100579.34;;;16.52;100.00
65329;BME280;51941;52.210;5.158;2023-07-29T03:23:29;100576.66;;;16.52;100.00
65329;BME280;51941;52.210;5.158;2023-07-29T03:25:57;100576.66;;;16.52;100.00
65329;BME280;51941;52.210;5.158;2023-07-29T03:28:26;100577.47;;;16.52;100.00
65329;BME280;51941;52.210;5.158;2023-07-29T03:30:53;100573.19;;;16.51;100.00
65329;BME280;51941;52.210;5.158;2023-07-29T03:33:20;100566.81;;;16.47;100.00
65329;BME280;51941;52.210;5.158;2023-07-29T03:35:47;100567.34;;;16.49;100.00
65329;BME280;51941;52.210;5.158;2023-07-29T03:38:14;100568.16;;;16.45;100.00
65329;BME280;51941;52.210;5.158;2023-07-29T03:40:43;100573.25;;;16.46;100.00
65329;BME280;51941;52.210;5.158;2023-07-29T03:43:10;100571.63;;;16.45;100.00
65329;BME280;51941;52.210;5.158;2023-07-29T03:45:37;100576.44;;;16.43;100.00
65329;BME280;51941;52.210;5.158;2023-07-29T03:48:04;100573.50;;;16.45;100.00
65329;BME280;51941;52.210;5.158;2023-07-29T03:50:33;100580.50;;;16.41;100.00
65329;BME280;51941;52.210;5.158;2023-07-29T03:53:00;100593.56;;;16.42;100.00
65329;BME280;51941;52.210;5.158;2023-07-29T03:55:27;100601.56;;;16.42;100.00
65329;BME280;51941;52.210;5.158;2023-07-29T03:57:56;100596.53;;;16.41;100.00
65329;BME280;51941;52.210;5.158;2023-07-29T04:00:23;100598.09;;;16.42;100.00
65329;BME280;51941;52.210;5.158;2023-07-29T04:02:51;100582.38;;;16.35;100.00
65329;BME280;51941;52.210;5.158;2023-07-29T04:05:18;100597.56;;;16.45;100.00
65329;BME280;51941;52.210;5.158;2023-07-29T04:07:45;100596.47;;;16.46;100.00
65329;BME280;51941;52.210;5.158;2023-07-29T04:10:14;100601.03;;;16.45;100.00
65329;BME280;51941;52.210;5.158;2023-07-29T04:12:40;100591.13;;;16.46;100.00
65329;BME280;51941;52.210;5.158;2023-07-29T04:15:09;100582.84;;;16.47;100.00
65329;BME280;51941;52.210;5.158;2023-07-29T04:17:36;100578.06;;;16.44;100.00
65329;BME280;51941;52.210;5.158;2023-07-29T04:20:04;100584.19;;;16.45;100.00
65329;BME280;51941;52.210;5.158;2023-07-29T04:22:33;100587.66;;;16.45;100.00
65329;BME280;51941;52.210;5.158;2023-07-29T04:25:00;100597.28;;;16.46;100.00
65329;BME280;51941;52.210;5.158;2023-07-29T04:27:27;100594.63;;;16.46;100.00
65329;BME280;51941;52.210;5.158;2023-07-29T04:29:54;100589.31;;;16.41;100.00
65329;BME280;51941;52.210;5.158;2023-07-29T04:32:22;100585.84;;;16.41;100.00
65329;BME280;51941;52.210;5.158;2023-07-29T04:34:49;100577.56;;;16.37;100.00
65329;BME280;51941;52.210;5.158;2023-07-29T04:37:15;100589.84;;;16.38;100.00
65329;BME280;51941;52.210;5.158;2023-07-29T04:39:42;100588.50;;;16.41;100.00
65329;BME280;51941;52.210;5.158;2023-07-29T04:42:09;100586.91;;;16.35;100.00
65329;BME280;51941;52.210;5.158;2023-07-29T04:44:36;100573.56;;;16.35;100.00
65329;BME280;51941;52.210;5.158;2023-07-29T04:47:03;100579.44;;;16.37;100.00
65329;BME280;51941;52.210;5.158;2023-07-29T04:49:31;100590.91;;;16.37;100.00
65329;BME280;51941;52.210;5.158;2023-07-29T04:51:58;100588.25;;;16.37;100.00
65329;BME280;51941;52.210;5.158;2023-07-29T04:54:25;100592.25;;;16.40;100.00
65329;BME280;51941;52.210;5.158;2023-07-29T04:56:51;100581.28;;;16.41;100.00
65329;BME280;51941;52.210;5.158;2023-07-29T04:59:18;100586.88;;;16.45;100.00
65329;BME280;51941;52.210;5.158;2023-07-29T05:01:45;100590.88;;;16.47;100.00
65329;BME280;51941;52.210;5.158;2023-07-29T05:04:12;100598.56;;;16.54;100.00
65329;BME280;51941;52.210;5.158;2023-07-29T05:06:41;100599.63;;;16.58;100.00
65329;BME280;51941;52.210;5.158;2023-07-29T05:09:14;100589.47;;;16.65;100.00
65329;BME280;51941;52.210;5.158;2023-07-29T05:11:41;100587.75;;;16.79;100.00
65329;BME280;51941;52.210;5.158;2023-07-29T05:14:09;100595.66;;;16.94;100.00
65329;BME280;51941;52.210;5.158;2023-07-29T05:16:36;100596.41;;;17.05;100.00
65329;BME280;51941;52.210;5.158;2023-07-29T05:19:04;100602.53;;;17.11;100.00
65329;BME280;51941;52.210;5.158;2023-07-29T05:21:31;100604.88;;;17.17;100.00
65329;BME280;51941;52.210;5.158;2023-07-29T05:23:59;100598.16;;;17.20;100.00
65329;BME280;51941;52.210;5.158;2023-07-29T05:26:26;100596.78;;;17.22;100.00
65329;BME280;51941;52.210;5.158;2023-07-29T05:28:52;100589.28;;;17.24;100.00
65329;BME280;51941;52.210;5.158;2023-07-29T05:31:19;100601.03;;;17.28;100.00
65329;BME280;51941;52.210;5.158;2023-07-29T05:33:46;100602.88;;;17.33;100.00
65329;BME280;51941;52.210;5.158;2023-07-29T05:36:13;100602.53;;;17.39;100.00
65329;BME280;51941;52.210;5.158;2023-07-29T05:38:39;100605.72;;;17.41;100.00
65329;BME280;51941;52.210;5.158;2023-07-29T05:41:08;100605.69;;;17.47;100.00
65329;BME280;51941;52.210;5.158;2023-07-29T05:43:34;100604.03;;;17.51;100.00
65329;BME280;51941;52.210;5.158;2023-07-29T05:46:01;100604.78;;;17.56;100.00
65329;BME280;51941;52.210;5.158;2023-07-29T05:48:28;100613.09;;;17.60;100.00
65329;BME280;51941;52.210;5.158;2023-07-29T05:50:55;100604.50;;;17.63;100.00
65329;BME280;51941;52.210;5.158;2023-07-29T05:53:22;100597.22;;;17.68;100.00
65329;BME280;51941;52.210;5.158;2023-07-29T05:55:48;100598.75;;;17.74;100.00
65329;BME280;51941;52.210;5.158;2023-07-29T05:58:17;100602.91;;;17.86;100.00
65329;BME280;51941;52.210;5.158;2023-07-29T06:00:43;100612.88;;;18.04;100.00
65329;BME280;51941;52.210;5.158;2023-07-29T06:03:10;100609.97;;;18.24;100.00
65329;BME280;51941;52.210;5.158;2023-07-29T06:05:37;100602.81;;;18.38;100.00
65329;BME280;51941;52.210;5.158;2023-07-29T06:08:03;100598.88;;;18.54;100.00
65329;BME280;51941;52.210;5.158;2023-07-29T06:10:30;100598.31;;;18.76;100.00
65329;BME280;51941;52.210;5.158;2023-07-29T06:12:57;100599.69;;;18.92;100.00
65329;BME280;51941;52.210;5.158;2023-07-29T06:15:25;100597.94;;;19.02;100.00
65329;BME280;51941;52.210;5.158;2023-07-29T06:17:53;100600.53;;;19.07;100.00
65329;BME280;51941;52.210;5.158;2023-07-29T06:20:19;100595.28;;;19.15;100.00
65329;BME280;51941;52.210;5.158;2023-07-29T06:22:46;100597.16;;;19.15;100.00
65329;BME280;51941;52.210;5.158;2023-07-29T06:25:13;100600.97;;;19.14;100.00
65329;BME280;51941;52.210;5.158;2023-07-29T06:27:40;100608.91;;;19.19;100.00
65329;BME280;51941;52.210;5.158;2023-07-29T06:30:07;100608.81;;;19.24;100.00
65329;BME280;51941;52.210;5.158;2023-07-29T06:32:35;100615.31;;;19.55;100.00
65329;BME280;51941;52.210;5.158;2023-07-29T06:35:02;100615.69;;;20.36;100.00
65329;BME280;51941;52.210;5.158;2023-07-29T06:37:29;100611.16;;;21.17;100.00
65329;BME280;51941;52.210;5.158;2023-07-29T06:39:56;100596.47;;;21.23;100.00
65329;BME280;51941;52.210;5.158;2023-07-29T06:42:22;100613.53;;;21.19;100.00
65329;BME280;51941;52.210;5.158;2023-07-29T06:44:49;100607.94;;;20.93;100.00
65329;BME280;51941;52.210;5.158;2023-07-29T06:47:16;100615.19;;;20.70;100.00
65329;BME280;51941;52.210;5.158;2023-07-29T06:49:45;100616.84;;;20.44;100.00
65329;BME280;51941;52.210;5.158;2023-07-29T06:52:12;100622.72;;;20.32;100.00
65329;BME280;51941;52.210;5.158;2023-07-29T06:54:39;100622.31;;;20.38;100.00
65329;BME280;51941;52.210;5.158;2023-07-29T06:57:06;100629.06;;;20.63;100.00
65329;BME280;51941;52.210;5.158;2023-07-29T06:59:33;100610.78;;;20.74;100.00
65329;BME280;51941;52.210;5.158;2023-07-29T07:02:00;100618.47;;;20.81;100.00
65329;BME280;51941;52.210;5.158;2023-07-29T07:04:27;100616.25;;;20.83;100.00
65329;BME280;51941;52.210;5.158;2023-07-29T07:06:55;100611.66;;;20.83;100.00
65329;BME280;51941;52.210;5.158;2023-07-29T07:09:22;100608.66;;;20.85;100.00
65329;BME280;51941;52.210;5.158;2023-07-29T07:11:48;100605.97;;;20.85;100.00
65329;BME280;51941;52.210;5.158;2023-07-29T07:14:15;100607.13;;;20.92;100.00
65329;BME280;51941;52.210;5.158;2023-07-29T07:16:42;100624.38;;;20.91;100.00
65329;BME280;51941;52.210;5.158;2023-07-29T07:19:09;100623.41;;;20.87;100.00
65329;BME280;51941;52.210;5.158;2023-07-29T07:21:35;100622.91;;;20.85;100.00
65329;BME280;51941;52.210;5.158;2023-07-29T07:24:04;100622.03;;;20.90;100.00
65329;BME280;51941;52.210;5.158;2023-07-29T07:26:31;100619.53;;;21.38;100.00
65329;BME280;51941;52.210;5.158;2023-07-29T07:28:57;100622.63;;;21.76;100.00
65329;BME280;51941;52.210;5.158;2023-07-29T07:31:24;100615.66;;;22.32;100.00
65329;BME280;51941;52.210;5.158;2023-07-29T07:33:51;100622.38;;;23.29;100.00
65329;BME280;51941;52.210;5.158;2023-07-29T07:36:18;100622.91;;;24.16;100.00
65329;BME280;51941;52.210;5.158;2023-07-29T07:38:44;100624.44;;;24.25;100.00
65329;BME280;51941;52.210;5.158;2023-07-29T07:41:12;100630.44;;;24.01;100.00
65329;BME280;51941;52.210;5.158;2023-07-29T07:43:39;100630.75;;;23.62;100.00
65329;BME280;51941;52.210;5.158;2023-07-29T07:46:06;100625.38;;;23.19;100.00
65329;BME280;51941;52.210;5.158;2023-07-29T07:48:33;100623.19;;;22.78;100.00
65329;BME280;51941;52.210;5.158;2023-07-29T07:50:59;100626.81;;;22.47;100.00
65329;BME280;51941;52.210;5.158;2023-07-29T07:53:29;100636.06;;;22.15;100.00
65329;BME280;51941;52.210;5.158;2023-07-29T07:55:56;100636.31;;;21.97;100.00
65329;BME280;51941;52.210;5.158;2023-07-29T07:58:24;100639.50;;;21.99;100.00
65329;BME280;51941;52.210;5.158;2023-07-29T08:00:51;100631.94;;;22.09;100.00
65329;BME280;51941;52.210;5.158;2023-07-29T08:03:17;100631.81;;;22.32;100.00
65329;BME280;51941;52.210;5.158;2023-07-29T08:05:44;100630.91;;;22.36;100.00
65329;BME280;51941;52.210;5.158;2023-07-29T08:08:11;100635.78;;;22.25;100.00
65329;BME280;51941;52.210;5.158;2023-07-29T08:10:38;100636.84;;;22.07;100.00
65329;BME280;51941;52.210;5.158;2023-07-29T08:13:04;100639.63;;;21.85;100.00
65329;BME280;51941;52.210;5.158;2023-07-29T08:15:33;100636.63;;;21.64;100.00
65329;BME280;51941;52.210;5.158;2023-07-29T08:17:59;100631.69;;;21.88;100.00
65329;BME280;51941;52.210;5.158;2023-07-29T08:20:26;100636.69;;;22.95;100.00
65329;BME280;51941;52.210;5.158;2023-07-29T08:22:53;100637.72;;;24.09;100.00
65329;BME280;51941;52.210;5.158;2023-07-29T08:25:19;100630.63;;;25.17;100.00
65329;BME280;51941;52.210;5.158;2023-07-29T08:27:46;100629.53;;;25.76;100.00
65329;BME280;51941;52.210;5.158;2023-07-29T08:30:13;100637.63;;;25.51;100.00
65329;BME280;51941;52.210;5.158;2023-07-29T08:32:44;100639.50;;;24.85;100.00
65329;BME280;51941;52.210;5.158;2023-07-29T08:35:10;100648.38;;;24.15;100.00
65329;BME280;51941;52.210;5.158;2023-07-29T08:37:37;100643.31;;;23.49;100.00
65329;BME280;51941;52.210;5.158;2023-07-29T08:40:05;100640.81;;;22.92;100.00
65329;BME280;51941;52.210;5.158;2023-07-29T08:42:33;100635.06;;;22.51;100.00
65329;BME280;51941;52.210;5.158;2023-07-29T08:45:06;100641.13;;;22.65;100.00
65329;BME280;51941;52.210;5.158;2023-07-29T08:47:33;100644.31;;;22.84;100.00
65329;BME280;51941;52.210;5.158;2023-07-29T08:50:06;100636.69;;;22.86;100.00
65329;BME280;51941;52.210;5.158;2023-07-29T08:52:33;100640.03;;;22.75;100.00
65329;BME280;51941;52.210;5.158;2023-07-29T08:55:00;100627.31;;;22.58;100.00
65329;BME280;51941;52.210;5.158;2023-07-29T08:57:28;100629.94;;;22.41;100.00
65329;BME280;51941;52.210;5.158;2023-07-29T08:59:56;100635.34;;;22.41;100.00
65329;BME280;51941;52.210;5.158;2023-07-29T09:02:24;100638.81;;;22.41;100.00
65329;BME280;51941;52.210;5.158;2023-07-29T09:04:51;100646.34;;;22.53;100.00
65329;BME280;51941;52.210;5.158;2023-07-29T09:07:19;100641.28;;;22.69;100.00
65329;BME280;51941;52.210;5.158;2023-07-29T09:09:47;100641.59;;;22.84;100.00
65329;BME280;51941;52.210;5.158;2023-07-29T09:12:13;100653.38;;;23.06;100.00
65329;BME280;51941;52.210;5.158;2023-07-29T09:14:40;100643.38;;;23.06;100.00
65329;BME280;51941;52.210;5.158;2023-07-29T09:17:08;100646.06;;;22.89;100.00
65329;BME280;51941;52.210;5.158;2023-07-29T09:19:35;100647.78;;;22.68;100.00
65329;BME280;51941;52.210;5.158;2023-07-29T09:22:02;100649.84;;;22.53;100.00
65329;BME280;51941;52.210;5.158;2023-07-29T09:24:31;100646.84;;;22.55;100.00
65329;BME280;51941;52.210;5.158;2023-07-29T09:26:59;100651.13;;;22.65;100.00
65329;BME280;51941;52.210;5.158;2023-07-29T09:29:28;100657.81;;;22.93;100.00
65329;BME280;51941;52.210;5.158;2023-07-29T09:32:17;100650.50;;;23.28;100.00
65329;BME280;51941;52.210;5.158;2023-07-29T09:34:45;100644.28;;;23.53;100.00
65329;BME280;51941;52.210;5.158;2023-07-29T09:37:15;100652.03;;;23.55;97.55
65329;BME280;51941;52.210;5.158;2023-07-29T09:39:45;100649.06;;;23.39;97.34
65329;BME280;51941;52.210;5.158;2023-07-29T09:42:18;100643.38;;;23.23;97.96
65329;BME280;51941;52.210;5.158;2023-07-29T09:44:45;100647.47;;;23.12;99.93
65329;BME280;51941;52.210;5.158;2023-07-29T09:47:19;100646.22;;;23.18;100.00
65329;BME280;51941;52.210;5.158;2023-07-29T09:49:46;100644.50;;;23.22;98.95
65329;BME280;51941;52.210;5.158;2023-07-29T09:52:15;100652.75;;;23.26;98.72
65329;BME280;51941;52.210;5.158;2023-07-29T09:54:42;100651.47;;;23.23;97.71
65329;BME280;51941;52.210;5.158;2023-07-29T09:57:10;100644.63;;;23.17;99.01
65329;BME280;51941;52.210;5.158;2023-07-29T09:59:37;100648.75;;;23.15;100.00
65329;BME280;51941;52.210;5.158;2023-07-29T10:02:04;100651.78;;;23.22;100.00
65329;BME280;51941;52.210;5.158;2023-07-29T10:04:36;100650.06;;;23.26;100.00
65329;BME280;51941;52.210;5.158;2023-07-29T10:07:03;100656.25;;;23.26;100.00
65329;BME280;51941;52.210;5.158;2023-07-29T10:09:31;100654.97;;;23.32;100.00
65329;BME280;51941;52.210;5.158;2023-07-29T10:11:58;100654.50;;;23.22;100.00
65329;BME280;51941;52.210;5.158;2023-07-29T10:14:27;100674.66;;;23.07;100.00
65329;BME280;51941;52.210;5.158;2023-07-29T10:16:55;100672.56;;;22.78;100.00
65329;BME280;51941;52.210;5.158;2023-07-29T10:19:22;100679.03;;;22.51;100.00
65329;BME280;51941;52.210;5.158;2023-07-29T10:21:51;100671.44;;;22.22;100.00
65329;BME280;51941;52.210;5.158;2023-07-29T10:24:19;100674.53;;;21.99;100.00
65329;BME280;51941;52.210;5.158;2023-07-29T10:26:57;100663.72;;;21.90;100.00
65329;BME280;51941;52.210;5.158;2023-07-29T10:29:24;100667.41;;;21.94;100.00
65329;BME280;51941;52.210;5.158;2023-07-29T10:31:57;100672.88;;;22.11;100.00
65329;BME280;51941;52.210;5.158;2023-07-29T10:34:25;100667.97;;;22.22;100.00
65329;BME280;51941;52.210;5.158;2023-07-29T10:36:52;100674.50;;;22.30;100.00
65329;BME280;51941;52.210;5.158;2023-07-29T10:39:20;100674.84;;;22.37;100.00
65329;BME280;51941;52.210;5.158;2023-07-29T10:41:57;100667.41;;;22.42;100.00
65329;BME280;51941;52.210;5.158;2023-07-29T10:44:50;100670.72;;;22.31;100.00
65329;BME280;51941;52.210;5.158;2023-07-29T10:47:20;100652.47;;;22.36;100.00
65329;BME280;51941;52.210;5.158;2023-07-29T10:49:49;100654.69;;;22.34;100.00
65329;BME280;51941;52.210;5.158;2023-07-29T10:52:28;100663.28;;;22.45;100.00
65329;BME280;51941;52.210;5.158;2023-07-29T10:54:56;100663.94;;;22.50;100.00
65329;BME280;51941;52.210;5.158;2023-07-29T10:57:31;100671.44;;;22.62;100.00
65329;BME280;51941;52.210;5.158;2023-07-29T10:59:58;100671.28;;;22.67;100.00
65329;BME280;51941;52.210;5.158;2023-07-29T11:02:30;100679.84;;;22.69;100.00
65329;BME280;51941;52.210;5.158;2023-07-29T11:04:58;100679.84;;;22.60;100.00
65329;BME280;51941;52.210;5.158;2023-07-29T11:07:26;100680.31;;;22.54;100.00
65329;BME280;51941;52.210;5.158;2023-07-29T11:09:56;100684.22;;;22.39;100.00
65329;BME280;51941;52.210;5.158;2023-07-29T11:12:53;100674.00;;;22.19;100.00
65329;BME280;51941;52.210;5.158;2023-07-29T11:15:23;100672.97;;;22.06;100.00
65329;BME280;51941;52.210;5.158;2023-07-29T11:17:53;100675.53;;;22.03;100.00
65329;BME280;51941;52.210;5.158;2023-07-29T11:20:21;100679.72;;;21.86;100.00
65329;BME280;51941;52.210;5.158;2023-07-29T11:22:50;100676.84;;;21.83;100.00
65329;BME280;51941;52.210;5.158;2023-07-29T11:25:18;100684.31;;;21.86;100.00
65329;BME280;51941;52.210;5.158;2023-07-29T11:27:46;100690.38;;;21.92;100.00
65329;BME280;51941;52.210;5.158;2023-07-29T11:30:14;100685.31;;;21.99;100.00
65329;BME280;51941;52.210;5.158;2023-07-29T11:32:43;100685.19;;;22.04;100.00
65329;BME280;51941;52.210;5.158;2023-07-29T11:35:13;100681.03;;;21.98;100.00
65329;BME280;51941;52.210;5.158;2023-07-29T11:37:41;100677.38;;;21.94;100.00
65329;BME280;51941;52.210;5.158;2023-07-29T11:40:09;100679.63;;;22.00;100.00
65329;BME280;51941;52.210;5.158;2023-07-29T11:42:37;100672.97;;;22.06;100.00
65329;BME280;51941;52.210;5.158;2023-07-29T11:45:05;100679.03;;;22.12;100.00
65329;BME280;51941;52.210;5.158;2023-07-29T11:47:33;100678.28;;;22.20;100.00
65329;BME280;51941;52.210;5.158;2023-07-29T11:50:05;100670.72;;;22.39;100.00
65329;BME280;51941;52.210;5.158;2023-07-29T11:52:36;100676.81;;;22.53;100.00
65329;BME280;51941;52.210;5.158;2023-07-29T11:57:31;100669.22;;;22.64;100.00
65329;BME280;51941;52.210;5.158;2023-07-29T12:00:01;100667.03;;;22.75;100.00
65329;BME280;51941;52.210;5.158;2023-07-29T12:02:36;100666.53;;;22.73;100.00
65329;BME280;51941;52.210;5.158;2023-07-29T12:05:04;100664.78;;;22.68;100.00
65329;BME280;51941;52.210;5.158;2023-07-29T12:07:31;100666.69;;;22.68;100.00
65329;BME280;51941;52.210;5.158;2023-07-29T12:10:00;100671.63;;;22.74;100.00
65329;BME280;51941;52.210;5.158;2023-07-29T12:12:28;100672.72;;;22.73;100.00
65329;BME280;51941;52.210;5.158;2023-07-29T12:14:55;100672.56;;;22.70;100.00
65329;BME280;51941;52.210;5.158;2023-07-29T12:17:22;100667.03;;;22.75;100.00
65329;BME280;51941;52.210;5.158;2023-07-29T12:19:49;100659.06;;;22.78;100.00
65329;BME280;51941;52.210;5.158;2023-07-29T12:22:18;100659.25;;;22.73;100.00
65329;BME280;51941;52.210;5.158;2023-07-29T12:24:45;100671.28;;;22.67;100.00
65329;BME280;51941;52.210;5.158;2023-07-29T12:27:14;100660.34;;;22.63;100.00
65329;BME280;51941;52.210;5.158;2023-07-29T12:29:41;100668.44;;;22.63;100.00
65329;BME280;51941;52.210;5.158;2023-07-29T12:32:08;100664.94;;;22.72;100.00
65329;BME280;51941;52.210;5.158;2023-07-29T12:34:36;100654.16;;;22.89;100.00
65329;BME280;51941;52.210;5.158;2023-07-29T12:37:05;100651.16;;;23.08;100.00
65329;BME280;51941;52.210;5.158;2023-07-29T12:39:33;100656.53;;;23.16;100.00
65329;BME280;51941;52.210;5.158;2023-07-29T12:42:00;100661.00;;;23.21;100.00
65329;BME280;51941;52.210;5.158;2023-07-29T12:44:30;100652.25;;;23.15;100.00
65329;BME280;51941;52.210;5.158;2023-07-29T12:46:57;100656.56;;;23.08;100.00